Time;durP1;ratioP1;P1;durP2;ratioP2;P2;SDS_P1;SDS_P2;PMS_P1;PMS_P2;Temp;Humidity;BMP_temperature;BMP_pressure;BME280_temperature;BME280_humidity;BME280_pressure;Samples;Min_cycle;Max_cycle;Signal;HPM_P1;HPM_P2
2023/01/04 00:01:40;;;;;;;6.37;1.30;;;9.20;99.90;;;;;;4996962;28;20359;-82
2023/01/04 00:04:05;;;;;;;7.43;1.40;;;9.20;99.90;;;;;;4996801;28;20026;-83
2023/01/04 00:06:31;;;;;;;6.30;1.57;;;9.20;99.90;;;;;;4996551;28;20393;-83
2023/01/04 00:08:56;;;;;;;10.33;1.80;;;9.20;99.90;;;;;;4996606;28;20033;-83
2023/01/04 00:11:23;;;;;;;5.27;1.27;;;9.20;99.90;;;;;;4979877;28;20461;-82
2023/01/04 00:13:54;;;;;;;7.53;1.47;;;9.10;99.90;;;;;;5012923;28;20417;-83
2023/01/04 00:16:22;;;;;;;8.33;1.80;;;9.10;99.90;;;;;;5012824;28;20080;-82
2023/01/04 00:18:49;;;;;;;9.40;1.60;;;9.00;99.90;;;;;;4996361;28;20026;-83
2023/01/04 00:21:21;;;;;;;6.63;1.57;;;9.00;99.90;;;;;;5012816;28;20022;-84
2023/01/04 00:23:49;;;;;;;8.93;2.00;;;9.00;99.90;;;;;;5012708;28;20036;-83
2023/01/04 00:26:19;;;;;;;5.87;1.67;;;8.90;99.90;;;;;;4996685;28;20052;-83
2023/01/04 00:28:46;;;;;;;8.97;1.77;;;9.00;99.90;;;;;;4997111;28;20030;-82
2023/01/04 00:31:14;;;;;;;9.00;1.93;;;8.90;99.90;;;;;;5012883;28;20474;-82
2023/01/04 00:33:40;;;;;;;10.23;1.80;;;8.80;99.90;;;;;;4996428;28;20029;-83
2023/01/04 00:36:08;;;;;;;8.47;2.13;;;8.80;99.90;;;;;;5028958;28;20034;-83
2023/01/04 00:38:34;;;;;;;11.47;2.30;;;8.80;99.90;;;;;;4996516;28;20030;-81
2023/01/04 00:41:01;;;;;;;11.50;2.30;;;8.80;99.90;;;;;;5012849;28;20382;-81
2023/01/04 00:43:27;;;;;;;7.67;1.67;;;8.70;99.90;;;;;;5012754;28;20053;-82
2023/01/04 00:45:53;;;;;;;8.57;2.47;;;8.70;99.90;;;;;;4996187;28;20552;-82
2023/01/04 00:48:20;;;;;;;11.33;2.30;;;8.70;99.90;;;;;;4996220;28;20437;-82
2023/01/04 00:50:46;;;;;;;10.37;2.70;;;8.70;99.90;;;;;;5013522;28;20076;-83
2023/01/04 00:53:13;;;;;;;8.23;3.30;;;8.60;99.90;;;;;;5013868;28;20106;-80
2023/01/04 00:55:39;;;;;;;16.17;3.30;;;8.60;99.90;;;;;;4980024;28;20030;-80
2023/01/04 00:58:05;;;;;;;7.57;2.90;;;8.60;99.90;;;;;;4996075;28;20026;-81
2023/01/04 01:00:31;;;;;;;11.07;3.37;;;8.50;99.90;;;;;;4995995;28;20018;-83
2023/01/04 01:02:57;;;;;;;9.20;3.00;;;8.50;99.90;;;;;;5012303;28;20398;-81
2023/01/04 01:05:22;;;;;;;9.77;2.90;;;8.50;99.90;;;;;;5013734;28;20023;-81
2023/01/04 01:07:48;;;;;;;9.47;2.83;;;8.50;99.90;;;;;;4995841;28;20034;-82
2023/01/04 01:10:14;;;;;;;10.90;3.13;;;8.50;99.90;;;;;;5013346;28;20494;-83
2023/01/04 01:12:39;;;;;;;9.00;2.83;;;8.50;99.90;;;;;;4995615;28;20057;-81
2023/01/04 01:15:05;;;;;;;9.50;3.13;;;8.50;99.90;;;;;;5012162;28;20058;-85
2023/01/04 01:17:33;;;;;;;8.87;3.00;;;8.40;99.90;;;;;;4995861;28;20056;-80
2023/01/04 01:19:59;;;;;;;15.87;3.33;;;8.50;99.90;;;;;;5011862;28;20026;-84
2023/01/04 01:22:25;;;;;;;15.93;3.37;;;8.50;99.90;;;;;;5013781;28;20026;-85
2023/01/04 01:24:51;;;;;;;14.83;4.20;;;8.50;99.90;;;;;;5016062;28;20030;-84
2023/01/04 01:27:17;;;;;;;10.40;3.77;;;8.50;99.90;;;;;;5015911;28;20029;-83
2023/01/04 01:29:43;;;;;;;10.77;3.40;;;8.50;99.90;;;;;;4999518;28;20081;-83
2023/01/04 01:32:08;;;;;;;9.00;3.60;;;8.50;99.90;;;;;;4999421;28;20022;-81
2023/01/04 01:34:34;;;;;;;12.43;3.90;;;8.50;99.90;;;;;;4999429;28;20018;-82
2023/01/04 01:37:01;;;;;;;10.30;3.40;;;8.50;99.90;;;;;;4999467;28;20092;-83
2023/01/04 01:39:27;;;;;;;10.23;4.50;;;8.50;99.90;;;;;;5016040;28;20052;-87
2023/01/04 01:41:53;;;;;;;13.97;3.90;;;8.50;99.90;;;;;;5017097;28;20057;-83
2023/01/04 01:44:40;;;;;;;9.90;3.90;;;8.50;99.90;;;;;;4999408;28;20234;-83
2023/01/04 01:47:11;;;;;;;9.97;3.67;;;8.60;99.90;;;;;;5016739;28;20088;-82
2023/01/04 01:49:38;;;;;;;8.43;4.13;;;8.60;99.90;;;;;;5015631;28;20022;-82
2023/01/04 01:52:34;;;;;;;12.23;4.47;;;8.60;99.90;;;;;;5015684;28;20030;-84
2023/01/04 01:55:03;;;;;;;11.97;3.93;;;8.60;99.90;;;;;;5015402;28;20486;-83
2023/01/04 01:57:34;;;;;;;10.83;4.17;;;8.60;99.90;;;;;;5015265;28;20255;-84
2023/01/04 02:00:07;;;;;;;8.97;3.97;;;8.70;99.90;;;;;;5016891;28;20473;-84
2023/01/04 02:02:33;;;;;;;12.90;3.70;;;8.70;99.90;;;;;;5015465;28;20105;-82
2023/01/04 02:05:01;;;;;;;8.47;3.60;;;8.60;99.90;;;;;;4999173;28;20041;-84
2023/01/04 02:07:27;;;;;;;7.17;3.53;;;8.70;99.90;;;;;;5015374;28;20030;-82
2023/01/04 02:09:55;;;;;;;10.43;4.60;;;8.70;99.90;;;;;;5015304;28;20497;-84
2023/01/04 02:12:20;;;;;;;9.87;3.63;;;8.70;99.90;;;;;;5016415;28;20053;-82
2023/01/04 02:14:48;;;;;;;10.60;3.50;;;8.80;99.90;;;;;;5015254;28;20026;-83
2023/01/04 02:17:34;;;;;;;6.17;3.40;;;8.80;99.90;;;;;;4998928;28;20026;-83
2023/01/04 02:20:30;;;;;;;10.50;3.80;;;8.80;99.90;;;;;;5015129;28;20079;-85
2023/01/04 02:23:21;;;;;;;12.20;3.80;;;8.80;99.90;;;;;;5031735;28;20026;-86
2023/01/04 02:26:05;;;;;;;12.37;3.63;;;8.90;99.90;;;;;;5015485;28;20049;-83
2023/01/04 02:28:51;;;;;;;5.88;3.28;;;8.90;99.90;;;;;;5015295;28;20390;-85
2023/01/04 02:31:29;;;;;;;9.77;3.80;;;8.90;99.90;;;;;;5016220;28;20026;-85
2023/01/04 02:34:25;;;;;;;12.47;4.33;;;8.90;99.90;;;;;;5014918;28;20050;-85
2023/01/04 02:36:59;;;;;;;7.60;3.37;;;9.00;99.90;;;;;;5031750;28;20537;-82
2023/01/04 02:39:44;;;;;;;7.30;3.83;;;9.00;99.90;;;;;;5015324;28;20382;-82
2023/01/04 02:44:51;;;;;;;6.82;3.15;;;9.00;99.90;;;;;;5016015;28;20030;-85
2023/01/04 02:45:18;;;;;;;10.02;3.72;;;9.00;99.90;;;;;;5015885;28;20494;-82
2023/01/04 02:50:36;;;;;;;9.63;3.47;;;9.00;99.90;;;;;;5001145;28;20048;-77
2023/01/04 02:53:13;;;;;;;6.80;3.67;;;9.10;99.90;;;;;;5014247;28;20109;-76
2023/01/04 02:56:16;;;;;;;7.13;3.30;;;9.10;99.90;;;;;;5014156;28;20022;-76
2023/01/04 02:58:42;;;;;;;7.33;2.70;;;9.10;99.90;;;;;;5030829;28;20034;-78
2023/01/04 03:07:33;;;;;;;8.83;3.03;;;9.10;99.90;;;;;;5015202;28;20100;-78
2023/01/04 03:10:24;;;;;;;6.33;2.73;;;9.20;99.90;;;;;;5013929;28;20076;-87
2023/01/04 03:12:56;;;;;;;7.10;2.70;;;9.10;99.90;;;;;;5013869;28;20084;-82
2023/01/04 03:15:27;;;;;;;7.23;2.87;;;9.20;99.90;;;;;;5013997;28;20014;-82
2023/01/04 03:18:03;;;;;;;7.40;3.53;;;9.20;99.90;;;;;;5015132;28;20029;-82
2023/01/04 03:20:31;;;;;;;6.40;3.40;;;9.20;99.90;;;;;;5015244;28;20386;-85
2023/01/04 03:37:23;;;;;;;;;;;9.30;99.90;;;;;;5015550;28;20037;-76
2023/01/04 03:49:56;;;;;;;6.43;3.37;;;9.40;99.90;;;;;;5015428;28;20088;-82
2023/01/04 03:52:25;;;;;;;10.40;3.73;;;9.50;99.90;;;;;;5012696;28;20038;-83
2023/01/04 03:54:52;;;;;;;6.17;3.27;;;9.50;99.90;;;;;;5013325;28;20087;-85
2023/01/04 03:57:19;;;;;;;5.97;3.37;;;9.50;99.90;;;;;;5013485;28;20038;-83
2023/01/04 03:59:52;;;;;;;6.37;3.73;;;9.60;99.90;;;;;;4997105;28;20056;-83
2023/01/04 04:02:23;;;;;;;6.18;3.40;;;9.60;99.90;;;;;;5013507;28;20048;-85
2023/01/04 04:10:17;;;;;;;7.95;4.32;;;9.70;99.90;;;;;;5014529;28;20493;-83
2023/01/04 04:12:42;;;;;;;9.27;4.37;;;9.70;99.90;;;;;;5013043;28;20049;-83
2023/01/04 04:15:09;;;;;;;8.93;4.53;;;9.70;99.90;;;;;;4996607;28;20026;-82
2023/01/04 04:17:34;;;;;;;8.73;5.37;;;9.80;99.90;;;;;;4996871;28;20022;-84
2023/01/04 04:20:00;;;;;;;8.80;4.90;;;9.80;99.90;;;;;;4980450;28;20080;-82
2023/01/04 04:22:26;;;;;;;9.70;5.00;;;9.80;99.90;;;;;;4996573;28;20034;-83
2023/01/04 04:24:51;;;;;;;11.50;5.30;;;9.80;99.90;;;;;;4980393;28;20044;-82
2023/01/04 04:27:17;;;;;;;7.60;5.20;;;9.90;99.90;;;;;;4996859;28;20025;-83
2023/01/04 04:29:42;;;;;;;8.73;4.87;;;9.90;99.90;;;;;;5012814;28;20474;-82
2023/01/04 04:32:08;;;;;;;10.43;4.97;;;9.90;99.90;;;;;;4996494;28;20471;-82
2023/01/04 04:34:35;;;;;;;14.67;5.10;;;9.90;99.90;;;;;;4996698;28;20160;-84
2023/01/04 04:37:01;;;;;;;11.70;6.17;;;10.00;99.90;;;;;;4996709;28;20026;-82
2023/01/04 04:39:26;;;;;;;10.70;5.50;;;10.00;99.90;;;;;;4996272;28;20033;-81
2023/01/04 04:41:52;;;;;;;11.40;5.77;;;10.00;99.90;;;;;;4996155;28;20022;-83
2023/01/04 04:44:19;;;;;;;10.67;4.90;;;10.10;99.90;;;;;;4996365;28;20030;-76
2023/01/04 04:46:46;;;;;;;11.30;5.80;;;10.00;99.90;;;;;;5012213;28;20026;-76
2023/01/04 04:49:12;;;;;;;12.60;5.23;;;10.10;99.90;;;;;;5012364;28;20441;-76
2023/01/04 04:51:39;;;;;;;10.27;5.40;;;10.10;99.90;;;;;;5012578;28;20087;-83
2023/01/04 04:54:07;;;;;;;7.13;4.57;;;10.10;99.90;;;;;;5013759;28;20554;-84
2023/01/04 04:56:35;;;;;;;8.73;5.13;;;10.20;99.90;;;;;;5012611;28;20504;-82
2023/01/04 04:59:01;;;;;;;9.40;5.07;;;10.20;99.90;;;;;;4997179;28;20026;-81
2023/01/04 05:01:27;;;;;;;8.03;5.07;;;10.20;99.90;;;;;;5012808;28;20064;-76
2023/01/04 05:03:52;;;;;;;9.03;4.97;;;10.20;99.90;;;;;;4996074;28;20058;-77
2023/01/04 05:06:18;;;;;;;9.47;4.87;;;10.30;99.90;;;;;;4996135;28;20030;-76
2023/01/04 05:08:44;;;;;;;9.97;4.50;;;10.30;99.90;;;;;;5011895;28;20026;-75
2023/01/04 05:11:11;;;;;;;10.73;4.77;;;10.20;99.90;;;;;;4979250;28;20120;-77
2023/01/04 05:13:37;;;;;;;13.33;6.00;;;10.30;99.90;;;;;;5011813;28;20076;-76
2023/01/04 05:16:04;;;;;;;11.00;5.90;;;10.30;99.90;;;;;;4995786;28;20022;-76
2023/01/04 05:18:30;;;;;;;7.57;4.90;;;10.30;99.90;;;;;;5012006;28;20152;-79
2023/01/04 05:20:56;;;;;;;8.73;4.40;;;10.30;99.90;;;;;;5012140;28;20038;-77
2023/01/04 05:23:22;;;;;;;10.00;5.63;;;10.40;99.90;;;;;;5011929;28;20104;-76
2023/01/04 05:25:54;;;;;;;8.63;4.90;;;10.30;99.90;;;;;;4995891;28;20036;-76
2023/01/04 05:28:19;;;;;;;10.30;5.53;;;10.40;99.90;;;;;;5013194;28;20026;-77
2023/01/04 05:30:52;;;;;;;10.87;5.80;;;10.40;99.90;;;;;;4995440;28;20030;-76
2023/01/04 05:33:26;;;;;;;8.47;4.93;;;10.40;99.90;;;;;;5028366;28;20065;-77
2023/01/04 05:35:53;;;;;;;9.07;4.90;;;10.40;99.90;;;;;;5011921;28;20032;-77
2023/01/04 05:38:19;;;;;;;7.97;5.43;;;10.40;99.90;;;;;;5011774;28;20018;-77
2023/01/04 05:40:46;;;;;;;8.97;5.37;;;10.40;99.90;;;;;;5011868;28;20032;-76
2023/01/04 05:43:12;;;;;;;11.17;5.50;;;10.50;99.90;;;;;;5011948;28;20034;-77
2023/01/04 05:45:39;;;;;;;8.93;4.87;;;10.40;99.90;;;;;;5013119;28;20409;-76
2023/01/04 05:48:05;;;;;;;10.20;5.97;;;10.50;99.90;;;;;;4979354;28;20449;-76
2023/01/04 05:50:31;;;;;;;8.83;4.80;;;10.50;99.90;;;;;;4995227;28;20415;-76
2023/01/04 05:52:57;;;;;;;11.83;5.40;;;10.50;99.90;;;;;;5011642;28;20033;-77
2023/01/04 05:55:23;;;;;;;9.93;5.60;;;10.50;99.90;;;;;;4979116;28;20471;-77
2023/01/04 05:57:50;;;;;;;8.60;5.30;;;10.40;99.90;;;;;;4995420;28;20014;-77
2023/01/04 06:00:16;;;;;;;14.53;6.13;;;10.50;99.90;;;;;;5028177;28;20475;-77
2023/01/04 06:02:42;;;;;;;9.33;5.30;;;10.50;99.90;;;;;;5011557;28;20029;-76
2023/01/04 06:05:09;;;;;;;10.17;4.90;;;10.50;99.90;;;;;;5011601;28;20034;-77
2023/01/04 06:07:35;;;;;;;9.60;4.67;;;10.50;99.90;;;;;;5011885;28;20044;-79
2023/01/04 06:10:01;;;;;;;8.93;5.30;;;10.50;99.90;;;;;;4998843;28;20033;-79
2023/01/04 06:12:27;;;;;;;11.47;5.30;;;10.50;99.90;;;;;;4998741;28;20054;-78
2023/01/04 06:14:53;;;;;;;13.40;5.60;;;10.50;99.90;;;;;;4998602;28;20033;-78
2023/01/04 06:17:18;;;;;;;10.77;5.27;;;10.50;99.90;;;;;;4998732;28;20033;-76
2023/01/04 06:19:44;;;;;;;8.40;5.20;;;10.60;99.90;;;;;;4998626;28;20509;-76
2023/01/04 06:22:10;;;;;;;6.40;3.93;;;10.60;99.90;;;;;;5014901;28;20018;-76
2023/01/04 06:24:35;;;;;;;8.30;5.33;;;10.60;99.90;;;;;;5015105;28;20026;-78
2023/01/04 06:27:02;;;;;;;9.53;5.57;;;10.60;99.90;;;;;;4998442;28;20018;-78
2023/01/04 06:29:27;;;;;;;11.20;5.43;;;10.60;99.90;;;;;;5014804;28;20018;-79
2023/01/04 06:31:54;;;;;;;10.00;4.70;;;10.60;99.90;;;;;;4998716;28;20431;-77
2023/01/04 06:34:19;;;;;;;12.10;5.30;;;10.60;99.90;;;;;;5014679;28;20021;-77
2023/01/04 06:36:45;;;;;;;11.40;5.87;;;10.60;99.90;;;;;;4998373;28;20387;-76
2023/01/04 06:39:11;;;;;;;9.93;5.00;;;10.60;99.90;;;;;;5014480;28;20541;-77
2023/01/04 06:41:37;;;;;;;11.13;6.00;;;10.60;99.90;;;;;;5014463;28;20030;-76
2023/01/04 06:44:03;;;;;;;9.83;5.73;;;10.60;99.90;;;;;;5014486;28;20045;-76
2023/01/04 06:46:28;;;;;;;10.27;6.03;;;10.70;99.90;;;;;;5014411;28;20030;-77
2023/01/04 06:48:54;;;;;;;11.57;6.50;;;10.70;99.90;;;;;;5014598;28;20026;-79
2023/01/04 06:51:21;;;;;;;11.47;6.87;;;10.70;99.90;;;;;;5011273;28;20022;-77
2023/01/04 06:53:47;;;;;;;12.50;6.77;;;10.80;99.90;;;;;;5033400;28;20416;-78
2023/01/04 06:56:13;;;;;;;11.10;5.77;;;10.70;99.90;;;;;;5015623;28;20049;-77
2023/01/04 06:58:38;;;;;;;12.67;5.77;;;10.70;99.90;;;;;;5034490;28;20105;-76
2023/01/04 07:01:05;;;;;;;12.70;6.87;;;10.80;99.90;;;;;;5017359;28;20438;-77
2023/01/04 07:03:31;;;;;;;13.83;7.03;;;10.80;99.90;;;;;;5017030;28;20026;-76
2023/01/04 07:05:56;;;;;;;10.23;6.20;;;10.80;99.90;;;;;;5017056;28;20028;-79
2023/01/04 07:08:22;;;;;;;12.25;6.88;;;10.70;99.90;;;;;;5033729;28;20028;-76
2023/01/04 07:10:48;;;;;;;12.47;6.90;;;10.80;99.90;;;;;;5033663;28;20079;-76
2023/01/04 07:13:14;;;;;;;13.83;7.87;;;10.80;99.90;;;;;;5033835;28;20037;-77
2023/01/04 07:15:40;;;;;;;17.13;7.67;;;10.80;99.90;;;;;;5033824;28;20022;-85
2023/01/04 07:18:06;;;;;;;13.82;7.50;;;10.80;99.90;;;;;;5017876;28;20540;-86
2023/01/04 07:20:31;;;;;;;12.10;7.47;;;10.80;99.90;;;;;;5016159;28;20037;-87
2023/01/04 07:22:57;;;;;;;14.90;7.40;;;10.80;99.90;;;;;;5017770;28;20033;-86
2023/01/04 07:25:22;;;;;;;15.10;8.30;;;10.80;99.90;;;;;;5017478;28;20025;-83
2023/01/04 07:27:52;;;;;;;13.97;7.70;;;10.80;99.90;;;;;;5017235;28;20026;-85
2023/01/04 07:30:22;;;;;;;18.50;9.07;;;10.80;99.90;;;;;;5033714;28;20026;-84
2023/01/04 07:32:49;;;;;;;13.40;7.17;;;10.80;99.90;;;;;;5034856;28;20018;-83
2023/01/04 07:35:15;;;;;;;12.83;7.37;;;10.80;99.90;;;;;;5033433;28;20032;-82
2023/01/04 07:37:42;;;;;;;15.80;7.30;;;10.90;99.90;;;;;;5033608;28;20017;-82
2023/01/04 07:40:09;;;;;;;15.53;7.33;;;10.80;99.90;;;;;;5034567;28;20033;-83
2023/01/04 07:42:34;;;;;;;10.85;6.55;;;10.90;99.90;;;;;;5017250;28;20029;-82
2023/01/04 07:45:00;;;;;;;17.83;7.13;;;10.90;99.90;;;;;;5033276;28;20080;-81
2023/01/04 07:47:27;;;;;;;15.20;7.50;;;10.80;99.90;;;;;;5033354;28;20485;-82
2023/01/04 07:49:53;;;;;;;14.03;7.47;;;10.90;99.90;;;;;;5016587;28;20034;-81
2023/01/04 07:52:18;;;;;;;10.48;6.47;;;10.90;99.90;;;;;;5016496;28;20087;-81
2023/01/04 07:54:44;;;;;;;16.90;7.20;;;10.80;99.90;;;;;;5016530;28;20040;-82
2023/01/04 07:57:10;;;;;;;14.73;6.73;;;10.90;99.90;;;;;;5034192;28;20120;-84
2023/01/04 07:59:35;;;;;;;9.97;6.50;;;10.90;99.90;;;;;;5032807;28;20026;-81
2023/01/04 08:02:01;;;;;;;13.47;6.10;;;10.90;99.90;;;;;;5016416;28;20528;-81
2023/01/04 08:04:26;;;;;;;11.50;6.67;;;10.80;99.90;;;;;;5016473;28;20033;-85
2023/01/04 08:06:52;;;;;;;13.30;6.75;;;10.90;99.90;;;;;;5016373;28;20091;-84
2023/01/04 08:09:18;;;;;;;16.93;7.70;;;10.90;99.90;;;;;;5016451;28;20504;-85
2023/01/04 08:11:44;;;;;;;14.63;6.47;;;10.90;99.90;;;;;;5016601;28;20525;-85
2023/01/04 08:14:11;;;;;;;11.70;6.47;;;10.90;99.90;;;;;;5032945;28;20025;-83
2023/01/04 08:16:38;;;;;;;12.30;7.32;;;10.90;99.90;;;;;;5034111;28;20104;-86
2023/01/04 08:19:05;;;;;;;14.55;7.82;;;10.90;99.90;;;;;;5032918;28;20025;-83
2023/01/04 08:21:33;;;;;;;17.23;8.03;;;10.90;99.90;;;;;;5032718;28;20080;-83
2023/01/04 08:23:59;;;;;;;15.40;8.57;;;10.90;99.90;;;;;;5032944;28;20033;-81
2023/01/04 08:26:25;;;;;;;14.27;8.40;;;11.00;99.90;;;;;;5016685;28;20030;-87
2023/01/04 08:28:51;;;;;;;13.57;7.15;;;11.00;99.90;;;;;;5034500;28;20029;-87
2023/01/04 08:31:20;;;;;;;15.57;9.50;;;10.90;99.90;;;;;;5015934;28;20029;-84
2023/01/04 08:33:47;;;;;;;16.60;8.93;;;11.00;99.90;;;;;;5033397;28;20087;-88
2023/01/04 08:36:16;;;;;;;16.37;9.03;;;11.00;99.90;;;;;;5016391;28;20128;-85
2023/01/04 08:39:07;;;;;;;17.63;8.45;;;11.00;99.90;;;;;;5033521;28;20033;-83
2023/01/04 08:41:49;;;;;;;15.77;8.43;;;11.00;99.90;;;;;;5021967;28;20029;-83
2023/01/04 08:44:20;;;;;;;16.98;7.88;;;11.00;99.90;;;;;;5032464;28;20026;-84
2023/01/04 08:46:46;;;;;;;12.75;6.82;;;11.00;99.90;;;;;;5016736;28;20036;-85
2023/01/04 08:49:12;;;;;;;12.45;8.35;;;11.10;99.90;;;;;;5032675;28;20030;-83
2023/01/04 08:51:38;;;;;;;11.82;7.50;;;11.10;99.90;;;;;;5032653;28;20381;-87
2023/01/04 08:54:04;;;;;;;10.87;7.47;;;11.10;99.90;;;;;;5016129;28;20029;-84
2023/01/04 08:56:29;;;;;;;11.13;7.05;;;11.10;99.90;;;;;;5016100;28;20101;-86
2023/01/04 08:58:55;;;;;;;11.95;6.78;;;11.10;99.90;;;;;;5016088;28;20040;-86
2023/01/04 09:01:21;;;;;;;14.18;6.90;;;11.20;99.90;;;;;;5015840;28;20030;-83
2023/01/04 09:03:46;;;;;;;12.52;7.50;;;11.20;99.90;;;;;;5015648;28;20034;-84
2023/01/04 09:06:14;;;;;;;13.55;7.22;;;11.20;99.90;;;;;;5015587;28;20389;-83
2023/01/04 09:08:41;;;;;;;14.20;7.80;;;11.20;99.90;;;;;;5032166;28;20033;-82
2023/01/04 09:11:11;;;;;;;12.35;7.13;;;11.20;99.90;;;;;;5031839;28;20041;-82
2023/01/04 09:13:38;;;;;;;12.90;7.47;;;11.20;99.90;;;;;;5031935;28;20029;-84
2023/01/04 09:16:06;;;;;;;14.25;7.47;;;11.20;99.90;;;;;;5016014;28;20377;-83
2023/01/04 09:18:32;;;;;;;16.42;7.43;;;11.20;99.90;;;;;;5031726;28;20014;-81
2023/01/04 09:20:59;;;;;;;9.77;6.43;;;11.20;99.90;;;;;;5032045;28;20037;-82
2023/01/04 09:23:27;;;;;;;13.35;6.80;;;11.30;99.90;;;;;;5031857;28;20370;-81
2023/01/04 09:25:53;;;;;;;13.85;7.35;;;11.30;99.90;;;;;;5015760;28;20025;-86
2023/01/04 09:28:19;;;;;;;15.15;6.43;;;11.30;99.90;;;;;;5032036;28;20029;-83
2023/01/04 09:30:44;;;;;;;14.23;7.60;;;11.30;99.90;;;;;;5015247;28;20033;-84
2023/01/04 09:33:10;;;;;;;14.88;7.32;;;11.30;99.90;;;;;;5015671;28;20034;-85
2023/01/04 09:35:36;;;;;;;14.05;6.90;;;11.40;99.90;;;;;;5015757;28;20036;-85
2023/01/04 09:38:01;;;;;;;11.85;6.50;;;11.30;99.90;;;;;;5015425;28;20025;-82
2023/01/04 09:40:35;;;;;;;15.05;6.93;;;11.40;99.90;;;;;;5016066;28;20102;-85
2023/01/04 09:43:02;;;;;;;12.70;6.00;;;11.40;99.90;;;;;;5032890;28;20021;-82
2023/01/04 09:45:28;;;;;;;13.30;6.90;;;11.40;99.90;;;;;;5018766;28;20482;-83
2023/01/04 09:48:04;;;;;;;12.90;6.18;;;11.40;99.90;;;;;;5035445;28;20029;-84
2023/01/04 09:50:47;;;;;;;11.60;6.43;;;11.40;99.90;;;;;;5035554;28;20033;-83
2023/01/04 09:53:38;;;;;;;13.87;6.80;;;11.40;99.90;;;;;;5035110;28;20018;-82
2023/01/04 09:56:33;;;;;;;12.98;6.40;;;11.50;99.90;;;;;;5033192;28;20322;-85
2023/01/04 09:59:07;;;;;;;12.18;6.65;;;11.40;99.90;;;;;;5035737;28;20040;-85
2023/01/04 10:02:12;;;;;;;17.85;6.70;;;11.50;99.90;;;;;;5034864;28;20030;-84
2023/01/04 10:04:46;;;;;;;12.13;6.28;;;11.50;99.90;;;;;;5033012;28;20032;-85
2023/01/04 10:07:28;;;;;;;10.15;6.18;;;11.50;99.90;;;;;;5034920;28;20025;-84
2023/01/04 10:09:54;;;;;;;13.02;5.78;;;11.50;99.90;;;;;;5034797;28;20478;-85
2023/01/04 10:13:03;;;;;;;9.13;5.10;;;11.50;99.90;;;;;;5036109;28;20545;-85
2023/01/04 10:16:09;;;;;;;9.23;5.53;;;11.50;99.90;;;;;;5017412;28;20468;-82
2023/01/04 10:18:53;;;;;;;9.98;5.53;;;11.50;99.90;;;;;;5051112;28;20048;-82
2023/01/04 10:21:44;;;;;;;13.25;6.25;;;11.50;99.90;;;;;;5034847;28;20041;-86
2023/01/04 10:24:39;;;;;;;9.45;5.50;;;11.50;99.90;;;;;;5035554;28;20547;-86
2023/01/04 10:27:13;;;;;;;11.90;5.80;;;11.50;99.90;;;;;;5034539;28;20432;-83
2023/01/04 10:30:04;;;;;;;10.27;4.63;;;11.50;99.90;;;;;;5034693;28;20021;-84
2023/01/04 10:32:40;;;;;;;9.07;4.95;;;11.60;99.90;;;;;;5016320;28;20033;-84
2023/01/04 10:35:27;;;;;;;11.85;5.95;;;11.60;99.90;;;;;;5034359;28;20045;-86
2023/01/04 10:38:09;;;;;;;11.07;5.40;;;11.60;99.90;;;;;;5034093;28;20029;-86
2023/01/04 10:40:38;;;;;;;10.52;5.43;;;11.60;99.90;;;;;;5037522;28;20121;-86
2023/01/04 10:43:25;;;;;;;9.18;5.13;;;11.60;99.90;;;;;;5036278;28;20021;-84
2023/01/04 10:46:03;;;;;;;10.80;5.03;;;11.60;99.90;;;;;;5048799;28;20029;-86
2023/01/04 10:48:37;;;;;;;12.02;6.18;;;11.60;99.90;;;;;;5034230;28;20034;-83
2023/01/04 10:51:05;;;;;;;12.80;5.45;;;11.60;99.90;;;;;;5031176;28;20072;-86
2023/01/04 10:53:49;;;;;;;12.73;5.20;;;11.60;99.90;;;;;;5014667;28;20075;-83
2023/01/04 10:56:36;;;;;;;9.38;5.28;;;11.60;99.90;;;;;;5030926;28;20014;-84
2023/01/04 10:59:15;;;;;;;11.55;5.82;;;11.60;99.90;;;;;;5031027;28;20040;-83
2023/01/04 11:02:05;;;;;;;9.65;5.82;;;11.60;99.90;;;;;;5015725;28;20109;-86
2023/01/04 11:04:47;;;;;;;10.18;5.78;;;11.70;99.90;;;;;;5031797;28;20026;-84
2023/01/04 11:07:20;;;;;;;10.00;5.30;;;11.70;99.90;;;;;;5033103;28;20125;-82
2023/01/04 11:10:01;;;;;;;10.40;5.82;;;11.70;99.90;;;;;;5034479;28;20036;-85
2023/01/04 11:12:27;;;;;;;10.07;5.97;;;11.70;99.90;;;;;;5032755;28;20103;-87
2023/01/04 11:14:53;;;;;;;12.98;6.18;;;11.70;99.90;;;;;;5017168;28;20022;-84
2023/01/04 11:17:21;;;;;;;10.13;5.68;;;11.70;99.90;;;;;;5016830;28;20104;-86
2023/01/04 11:19:47;;;;;;;10.43;5.65;;;11.70;99.90;;;;;;5038571;28;20029;-84
2023/01/04 11:22:28;;;;;;;10.07;5.68;;;11.70;99.90;;;;;;5031438;28;20017;-86
2023/01/04 11:25:01;;;;;;;10.70;5.97;;;11.70;99.90;;;;;;5033607;28;20014;-87
2023/01/04 11:27:31;;;;;;;13.25;5.90;;;11.70;99.90;;;;;;5033475;28;20020;-86
2023/01/04 11:30:13;;;;;;;10.23;5.32;;;11.70;99.90;;;;;;5031108;28;20050;-85
2023/01/04 11:33:26;;;;;;;8.30;5.03;;;11.70;99.90;;;;;;5047860;28;20017;-84
2023/01/04 11:35:58;;;;;;;8.63;5.13;;;11.70;99.90;;;;;;5011193;28;20025;-82
2023/01/04 11:38:28;;;;;;;10.63;5.18;;;11.70;99.90;;;;;;5034420;28;20009;-83
2023/01/04 11:41:00;;;;;;;12.82;5.07;;;11.70;99.90;;;;;;5031670;28;20101;-84
2023/01/04 11:43:37;;;;;;;10.48;5.35;;;11.70;99.90;;;;;;5032724;28;20025;-82
2023/01/04 11:46:15;;;;;;;12.75;5.05;;;11.80;99.90;;;;;;5048620;28;20023;-83
2023/01/04 11:48:45;;;;;;;8.20;4.63;;;11.80;99.90;;;;;;5014574;28;20033;-84
2023/01/04 11:51:32;;;;;;;9.23;4.95;;;11.80;99.90;;;;;;5028012;28;20558;-82
2023/01/04 11:54:04;;;;;;;9.15;4.90;;;11.80;99.90;;;;;;5030318;28;20423;-83
2023/01/04 11:56:34;;;;;;;7.13;4.07;;;11.70;99.90;;;;;;5032670;28;20021;-84
2023/01/04 11:59:15;;;;;;;6.68;4.20;;;11.80;99.90;;;;;;5032418;28;20481;-83
2023/01/04 12:01:43;;;;;;;9.95;5.40;;;11.70;99.90;;;;;;5032626;28;20025;-85
2023/01/04 12:04:22;;;;;;;7.45;4.32;;;11.80;99.90;;;;;;5031223;28;20013;-84
2023/01/04 12:07:14;;;;;;;7.88;4.88;;;11.80;99.90;;;;;;5031941;28;20072;-84
2023/01/04 12:09:40;;;;;;;9.32;5.40;;;11.80;99.90;;;;;;5048090;28;20025;-82
2023/01/04 12:12:06;;;;;;;11.18;5.53;;;11.80;99.90;;;;;;5032257;28;20049;-81
2023/01/04 12:14:35;;;;;;;9.02;5.75;;;11.80;99.90;;;;;;5017658;28;20033;-83
2023/01/04 12:17:17;;;;;;;10.57;5.90;;;11.80;99.90;;;;;;5037684;28;20107;-82
2023/01/04 12:19:45;;;;;;;11.07;6.80;;;11.80;99.90;;;;;;5040181;28;20028;-83
2023/01/04 12:22:34;;;;;;;13.77;7.80;;;11.80;99.90;;;;;;5038478;28;20044;-84
2023/01/04 12:25:01;;;;;;;13.35;7.07;;;11.90;99.90;;;;;;5033977;28;20075;-85
2023/01/04 12:27:26;;;;;;;14.55;7.90;;;11.90;99.90;;;;;;5032809;28;20057;-83
2023/01/04 12:29:57;;;;;;;12.35;8.15;;;11.90;99.90;;;;;;5016059;28;20060;-79
2023/01/04 12:32:25;;;;;;;13.05;8.00;;;11.90;99.90;;;;;;5033650;28;20022;-84
2023/01/04 12:34:52;;;;;;;12.57;7.93;;;12.00;99.90;;;;;;5032818;28;20030;-80
2023/01/04 12:37:37;;;;;;;14.75;8.68;;;12.00;99.90;;;;;;5033484;28;20485;-80
2023/01/04 12:40:41;;;;;;;15.88;8.90;;;12.00;99.90;;;;;;5032179;28;20029;-81
2023/01/04 12:43:16;;;;;;;13.85;7.38;;;12.00;99.90;;;;;;5009874;28;20327;-79
2023/01/04 12:45:47;;;;;;;15.48;9.18;;;12.10;99.90;;;;;;5032350;28;20426;-80
2023/01/04 12:51:25;;;;;;;15.05;8.70;;;12.10;99.90;;;;;;5033217;28;20040;-82
2023/01/04 12:53:56;;;;;;;15.50;7.20;;;12.10;99.90;;;;;;5015707;28;20022;-82
2023/01/04 12:56:22;;;;;;;16.25;7.78;;;12.10;99.90;;;;;;5032014;28;20140;-83
2023/01/04 12:59:13;;;;;;;14.13;6.75;;;12.10;99.90;;;;;;5033558;28;20189;-84
2023/01/04 13:01:39;;;;;;;14.05;6.88;;;12.10;99.90;;;;;;5033258;28;20078;-84
2023/01/04 13:04:28;;;;;;;12.52;7.07;;;12.10;99.90;;;;;;5032039;28;20112;-82
2023/01/04 13:06:56;;;;;;;16.40;7.15;;;12.10;99.90;;;;;;5031948;28;20067;-84
2023/01/04 13:09:21;;;;;;;13.20;5.93;;;12.10;99.90;;;;;;5031932;28;20034;-85
2023/01/04 13:12:04;;;;;;;12.68;5.72;;;12.10;99.90;;;;;;5014987;28;20107;-84
2023/01/04 13:14:38;;;;;;;11.13;5.55;;;12.10;99.90;;;;;;5045543;28;20021;-78
2023/01/04 13:17:12;;;;;;;;;;;12.20;99.90;;;;;;5031706;28;20458;-85
2023/01/04 13:19:39;;;;;;;12.20;6.20;;;12.20;99.90;;;;;;5052313;28;20412;-84
2023/01/04 13:22:15;;;;;;;10.15;5.68;;;12.20;99.90;;;;;;5035023;28;20029;-85
2023/01/04 13:24:42;;;;;;;17.88;6.20;;;12.20;99.90;;;;;;5035959;28;20355;-85
2023/01/04 13:27:20;;;;;;;13.95;6.85;;;12.20;99.90;;;;;;5035088;28;20385;-86
2023/01/04 13:29:47;;;;;;;14.13;6.40;;;12.20;99.90;;;;;;5035523;28;20378;-84
2023/01/04 13:32:29;;;;;;;9.18;5.82;;;12.20;99.90;;;;;;5018808;28;20505;-86
2023/01/04 13:35:07;;;;;;;12.40;6.10;;;12.20;99.90;;;;;;5048049;28;20025;-86
2023/01/04 13:37:59;;;;;;;12.35;6.50;;;12.20;99.90;;;;;;5033436;28;20431;-85
2023/01/04 13:40:36;;;;;;;11.73;6.15;;;12.20;99.90;;;;;;5032990;28;20103;-83
2023/01/04 13:43:21;;;;;;;12.15;6.45;;;12.20;99.90;;;;;;5036568;28;20028;-85
2023/01/04 13:45:58;;;;;;;11.05;6.07;;;12.20;99.90;;;;;;5049795;28;20068;-85